Time;durP1;ratioP1;P1;durP2;ratioP2;P2;SDS_P1;SDS_P2;PMS_P1;PMS_P2;Temp;Humidity;BMP_temperature;BMP_pressure;BME280_temperature;BME280_humidity;BME280_pressure;Samples;Min_cycle;Max_cycle;Signal;HPM_P1;HPM_P2
2023/08/29 00:01:20;;;;;;;33.15;6.32;;;;;;;;;;4996232;28;20125;-41
2023/08/29 00:03:47;;;;;;;37.63;6.53;;;;;;;;;;5005494;28;20966;-41
2023/08/29 00:06:14;;;;;;;35.70;6.50;;;;;;;;;;4992078;28;20384;-41
2023/08/29 00:08:41;;;;;;;36.20;5.97;;;;;;;;;;5006705;28;20427;-41
2023/08/29 00:11:08;;;;;;;35.10;6.43;;;;;;;;;;4991868;28;20039;-41
2023/08/29 00:13:35;;;;;;;35.78;6.35;;;;;;;;;;4991759;28;20132;-42
2023/08/29 00:16:02;;;;;;;43.50;7.03;;;;;;;;;;4999177;28;20042;-41
2023/08/29 00:18:29;;;;;;;40.00;6.85;;;;;;;;;;5011118;28;20033;-41
2023/08/29 00:20:56;;;;;;;32.95;7.07;;;;;;;;;;5011246;28;20069;-41
2023/08/29 00:23:23;;;;;;;59.92;8.02;;;;;;;;;;5008545;28;20395;-41
2023/08/29 00:25:53;;;;;;;123.75;14.30;;;;;;;;;;4995430;28;20066;-44
2023/08/29 00:28:20;;;;;;;66.45;9.93;;;;;;;;;;5002249;28;20054;-42
2023/08/29 00:30:48;;;;;;;66.13;9.23;;;;;;;;;;5000595;28;20050;-41
2023/08/29 00:33:14;;;;;;;51.38;8.25;;;;;;;;;;4988487;28;20538;-41
2023/08/29 00:35:41;;;;;;;54.67;8.48;;;;;;;;;;5010203;28;20092;-41
2023/08/29 00:38:10;;;;;;;55.17;8.02;;;;;;;;;;4996885;28;20580;-41
2023/08/29 00:40:37;;;;;;;68.40;8.88;;;;;;;;;;5003989;28;20038;-41
2023/08/29 00:43:05;;;;;;;71.97;8.80;;;;;;;;;;4993461;28;20109;-41
2023/08/29 00:45:33;;;;;;;47.83;8.00;;;;;;;;;;5001712;28;20030;-41
2023/08/29 00:48:01;;;;;;;58.20;8.20;;;;;;;;;;4998236;28;20034;-41
2023/08/29 00:50:28;;;;;;;60.97;9.65;;;;;;;;;;5010183;28;20029;-42
2023/08/29 00:52:58;;;;;;;52.50;8.73;;;;;;;;;;4994569;28;20069;-41
2023/08/29 00:55:26;;;;;;;32.85;7.53;;;;;;;;;;4996513;28;20042;-42
2023/08/29 00:57:56;;;;;;;45.78;8.32;;;;;;;;;;5014205;28;20427;-41
2023/08/29 01:00:24;;;;;;;40.90;7.50;;;;;;;;;;5013757;28;20044;-42
2023/08/29 01:02:51;;;;;;;44.75;7.93;;;;;;;;;;5007221;28;20065;-42
2023/08/29 01:05:20;;;;;;;37.30;8.02;;;;;;;;;;5014652;28;20105;-42
2023/08/29 01:07:48;;;;;;;36.35;8.00;;;;;;;;;;5014079;28;20038;-41
2023/08/29 01:10:15;;;;;;;36.92;7.88;;;;;;;;;;4999245;28;20048;-41
2023/08/29 01:12:49;;;;;;;39.40;8.05;;;;;;;;;;5003639;28;20034;-41
2023/08/29 01:15:22;;;;;;;47.85;9.35;;;;;;;;;;5007294;28;20045;-41
2023/08/29 01:17:53;;;;;;;50.50;8.70;;;;;;;;;;5009384;28;20037;-41
2023/08/29 01:20:21;;;;;;;43.33;8.68;;;;;;;;;;5005812;28;20046;-42
2023/08/29 01:22:55;;;;;;;42.17;8.60;;;;;;;;;;4994329;28;20069;-41
2023/08/29 01:25:32;;;;;;;49.40;8.25;;;;;;;;;;4994462;28;20022;-41
2023/08/29 01:28:01;;;;;;;48.88;8.50;;;;;;;;;;4994195;28;20034;-41
2023/08/29 01:30:28;;;;;;;47.65;9.27;;;;;;;;;;4994135;28;20066;-41
2023/08/29 01:32:55;;;;;;;38.75;8.57;;;;;;;;;;4994955;28;20057;-41
2023/08/29 01:35:23;;;;;;;35.58;8.90;;;;;;;;;;5003021;28;20042;-41
2023/08/29 01:37:50;;;;;;;37.72;7.88;;;;;;;;;;5001692;28;20054;-41
2023/08/29 01:40:17;;;;;;;41.72;8.63;;;;;;;;;;4994097;28;20125;-41
2023/08/29 01:42:44;;;;;;;37.25;8.80;;;;;;;;;;4994083;28;20090;-41
2023/08/29 01:45:11;;;;;;;41.50;8.68;;;;;;;;;;4994352;28;20034;-41
2023/08/29 01:47:38;;;;;;;43.05;8.40;;;;;;;;;;4993830;28;20042;-41
2023/08/29 01:50:06;;;;;;;34.75;8.27;;;;;;;;;;5004099;28;20046;-41
2023/08/29 01:52:33;;;;;;;36.28;8.63;;;;;;;;;;5009779;28;20030;-42
2023/08/29 01:55:00;;;;;;;28.90;7.68;;;;;;;;;;5004343;28;20041;-41
2023/08/29 01:57:28;;;;;;;33.40;8.10;;;;;;;;;;5008897;28;20030;-43
2023/08/29 01:59:55;;;;;;;29.45;8.02;;;;;;;;;;5009021;28;20500;-41
2023/08/29 02:02:23;;;;;;;34.35;8.32;;;;;;;;;;4993123;28;20030;-41
2023/08/29 02:04:50;;;;;;;37.63;8.45;;;;;;;;;;5000149;28;20033;-42
2023/08/29 02:07:17;;;;;;;42.83;8.63;;;;;;;;;;5012361;28;20026;-42
2023/08/29 02:09:44;;;;;;;35.20;9.35;;;;;;;;;;5012615;28;20387;-42
2023/08/29 02:12:11;;;;;;;43.30;8.45;;;;;;;;;;5010884;28;20107;-42
2023/08/29 02:14:38;;;;;;;39.25;8.65;;;;;;;;;;5012721;28;20033;-42
2023/08/29 02:17:05;;;;;;;41.53;8.90;;;;;;;;;;5012548;28;20037;-42
2023/08/29 02:19:32;;;;;;;36.58;8.23;;;;;;;;;;5012750;28;20114;-42
2023/08/29 02:21:59;;;;;;;34.22;7.50;;;;;;;;;;5012877;28;20033;-42
2023/08/29 02:24:27;;;;;;;32.97;7.05;;;;;;;;;;5012816;28;20120;-42
2023/08/29 02:26:54;;;;;;;29.83;7.57;;;;;;;;;;5012465;28;20578;-42
2023/08/29 02:29:21;;;;;;;34.53;7.68;;;;;;;;;;5012354;28;20030;-42
2023/08/29 02:31:48;;;;;;;30.63;7.05;;;;;;;;;;5012604;28;20025;-41
2023/08/29 02:34:16;;;;;;;34.00;7.40;;;;;;;;;;5022935;28;20045;-42
2023/08/29 02:36:43;;;;;;;30.50;7.35;;;;;;;;;;5026731;28;20064;-42
2023/08/29 02:39:10;;;;;;;33.13;7.32;;;;;;;;;;5021369;28;20044;-41
2023/08/29 02:41:37;;;;;;;27.17;7.50;;;;;;;;;;5019965;28;20029;-42
2023/08/29 02:44:04;;;;;;;32.67;6.97;;;;;;;;;;5013163;28;20076;-42
2023/08/29 02:46:31;;;;;;;29.80;7.05;;;;;;;;;;5013110;28;20029;-42
2023/08/29 02:48:58;;;;;;;31.05;7.22;;;;;;;;;;5012927;28;20096;-42
2023/08/29 02:51:25;;;;;;;25.42;6.28;;;;;;;;;;5012939;28;20041;-43
2023/08/29 02:53:52;;;;;;;32.95;7.13;;;;;;;;;;5013050;28;20079;-42
2023/08/29 02:56:19;;;;;;;21.60;6.15;;;;;;;;;;5012856;28;20484;-42
2023/08/29 02:58:47;;;;;;;24.73;6.43;;;;;;;;;;5012658;28;20038;-42
2023/08/29 03:01:14;;;;;;;32.03;6.45;;;;;;;;;;5012846;28;20046;-42
2023/08/29 03:03:41;;;;;;;22.63;5.80;;;;;;;;;;5013067;28;20474;-42
2023/08/29 03:06:07;;;;;;;18.95;6.03;;;;;;;;;;5012718;28;20022;-42
2023/08/29 03:08:34;;;;;;;21.10;6.15;;;;;;;;;;5012564;28;20034;-42
2023/08/29 03:11:04;;;;;;;22.50;5.50;;;;;;;;;;5012624;28;20026;-42
2023/08/29 03:13:32;;;;;;;19.85;6.05;;;;;;;;;;5012870;28;20472;-42
2023/08/29 03:16:02;;;;;;;23.80;5.82;;;;;;;;;;5012920;28;20064;-42
2023/08/29 03:18:29;;;;;;;21.73;6.13;;;;;;;;;;5012332;28;20037;-42
2023/08/29 03:20:57;;;;;;;22.08;5.05;;;;;;;;;;5012452;28;20062;-42
2023/08/29 03:23:24;;;;;;;21.13;5.90;;;;;;;;;;5012359;28;20030;-43
2023/08/29 03:25:51;;;;;;;20.95;5.75;;;;;;;;;;5012354;28;20037;-42
2023/08/29 03:28:18;;;;;;;24.83;5.75;;;;;;;;;;5012274;28;20030;-42
2023/08/29 03:30:45;;;;;;;19.13;5.65;;;;;;;;;;5010773;28;20170;-42
2023/08/29 03:33:12;;;;;;;24.35;5.70;;;;;;;;;;5012312;28;20096;-43
2023/08/29 03:35:39;;;;;;;19.20;5.65;;;;;;;;;;5012263;28;20032;-42
2023/08/29 03:38:06;;;;;;;20.42;5.00;;;;;;;;;;5012101;28;20106;-42
2023/08/29 03:40:33;;;;;;;20.80;5.38;;;;;;;;;;5012082;28;20088;-43
2023/08/29 03:43:00;;;;;;;18.48;5.00;;;;;;;;;;5012164;28;20021;-43
2023/08/29 03:45:27;;;;;;;20.50;5.70;;;;;;;;;;5012129;28;20036;-43
2023/08/29 03:47:54;;;;;;;19.88;5.03;;;;;;;;;;5011971;28;20065;-42
2023/08/29 03:50:21;;;;;;;19.45;5.13;;;;;;;;;;5012055;28;20080;-43
2023/08/29 03:52:48;;;;;;;18.77;5.53;;;;;;;;;;5011956;28;20365;-42
2023/08/29 03:55:15;;;;;;;18.00;5.10;;;;;;;;;;5012019;28;20036;-42
2023/08/29 03:57:42;;;;;;;18.40;5.00;;;;;;;;;;5011849;28;20018;-42
2023/08/29 04:00:10;;;;;;;16.27;4.60;;;;;;;;;;5011843;28;20087;-42
2023/08/29 04:02:39;;;;;;;21.77;5.22;;;;;;;;;;5011823;28;20395;-42
2023/08/29 04:05:15;;;;;;;20.13;5.15;;;;;;;;;;5011837;28;20033;-42
2023/08/29 04:07:42;;;;;;;20.60;4.50;;;;;;;;;;5011673;28;20084;-42
2023/08/29 04:10:09;;;;;;;16.63;4.78;;;;;;;;;;5011879;28;20030;-42
2023/08/29 04:12:36;;;;;;;13.77;4.60;;;;;;;;;;5011725;28;20100;-42
2023/08/29 04:15:03;;;;;;;14.48;4.55;;;;;;;;;;5011725;28;20014;-42
2023/08/29 04:17:30;;;;;;;12.00;3.90;;;;;;;;;;5011661;28;20026;-42
2023/08/29 04:19:58;;;;;;;16.80;4.13;;;;;;;;;;5011807;28;20476;-42
2023/08/29 04:22:25;;;;;;;16.80;4.25;;;;;;;;;;5011632;28;20064;-42
2023/08/29 04:24:52;;;;;;;15.10;4.10;;;;;;;;;;5012143;28;20076;-42
2023/08/29 04:27:20;;;;;;;17.80;4.03;;;;;;;;;;5015556;28;20392;-42
2023/08/29 04:29:47;;;;;;;19.30;4.30;;;;;;;;;;5015382;28;20053;-42
2023/08/29 04:32:14;;;;;;;14.23;4.07;;;;;;;;;;5015641;28;20025;-42
2023/08/29 04:34:41;;;;;;;14.13;3.75;;;;;;;;;;5015429;28;20025;-42
2023/08/29 04:37:08;;;;;;;18.05;4.05;;;;;;;;;;5015421;28;20026;-42
2023/08/29 04:39:35;;;;;;;15.43;4.22;;;;;;;;;;5015418;28;20490;-42
2023/08/29 04:42:02;;;;;;;13.98;3.75;;;;;;;;;;5015365;28;20040;-42
2023/08/29 04:44:30;;;;;;;18.58;4.13;;;;;;;;;;5015386;28;20022;-42
2023/08/29 04:46:57;;;;;;;12.85;3.80;;;;;;;;;;5015294;28;20593;-42
2023/08/29 04:49:24;;;;;;;17.52;3.95;;;;;;;;;;5015275;28;20022;-42
2023/08/29 04:51:51;;;;;;;14.43;3.85;;;;;;;;;;5015256;28;20018;-42
2023/08/29 04:54:18;;;;;;;13.15;3.60;;;;;;;;;;5015146;28;20427;-42
2023/08/29 04:56:45;;;;;;;16.20;3.80;;;;;;;;;;5015055;28;20081;-43
2023/08/29 04:59:12;;;;;;;13.88;3.50;;;;;;;;;;5015044;28;20026;-42
2023/08/29 05:01:39;;;;;;;14.27;3.63;;;;;;;;;;5013703;28;20037;-42
2023/08/29 05:04:08;;;;;;;10.55;3.53;;;;;;;;;;5014952;28;20040;-42
2023/08/29 05:06:35;;;;;;;14.65;4.18;;;;;;;;;;5014778;28;20030;-42
2023/08/29 05:09:06;;;;;;;10.82;3.63;;;;;;;;;;5014877;28;20034;-42
2023/08/29 05:11:33;;;;;;;13.95;3.85;;;;;;;;;;5014835;28;20065;-42
2023/08/29 05:14:00;;;;;;;11.68;3.78;;;;;;;;;;5014863;28;20105;-42
2023/08/29 05:16:27;;;;;;;9.52;3.50;;;;;;;;;;5014677;28;20033;-42
2023/08/29 05:18:54;;;;;;;12.75;3.90;;;;;;;;;;5014627;28;20030;-42
2023/08/29 05:21:21;;;;;;;15.27;4.03;;;;;;;;;;5014681;28;20026;-42
2023/08/29 05:23:48;;;;;;;18.73;3.78;;;;;;;;;;5013250;28;20030;-42
2023/08/29 05:26:15;;;;;;;13.70;3.47;;;;;;;;;;5014667;28;20033;-42
2023/08/29 05:28:42;;;;;;;12.30;3.50;;;;;;;;;;5014469;28;20034;-42
2023/08/29 05:31:09;;;;;;;15.70;3.45;;;;;;;;;;5012967;28;20073;-42
2023/08/29 05:33:36;;;;;;;10.93;3.30;;;;;;;;;;5014371;28;20026;-42
2023/08/29 05:36:03;;;;;;;13.10;3.58;;;;;;;;;;5013947;28;20040;-42
2023/08/29 05:38:30;;;;;;;13.52;2.78;;;;;;;;;;5013447;28;20480;-42
2023/08/29 05:40:57;;;;;;;10.20;3.00;;;;;;;;;;5014350;28;20022;-42
2023/08/29 05:43:24;;;;;;;10.20;3.25;;;;;;;;;;5014107;28;20026;-42
2023/08/29 05:45:51;;;;;;;12.50;3.15;;;;;;;;;;5014251;28;20034;-42
2023/08/29 05:48:18;;;;;;;13.38;3.53;;;;;;;;;;5014082;28;20400;-42
2023/08/29 05:50:45;;;;;;;10.35;3.17;;;;;;;;;;5014156;28;20025;-42
2023/08/29 05:53:12;;;;;;;10.85;3.03;;;;;;;;;;5013990;28;20104;-42
2023/08/29 05:55:39;;;;;;;15.05;2.67;;;;;;;;;;5013630;28;20391;-41
2023/08/29 05:58:06;;;;;;;12.43;3.08;;;;;;;;;;5013968;28;20046;-42
2023/08/29 06:00:33;;;;;;;16.58;3.50;;;;;;;;;;5013988;28;20108;-42
2023/08/29 06:03:03;;;;;;;11.23;2.90;;;;;;;;;;5012699;28;20042;-42
2023/08/29 06:05:36;;;;;;;11.20;3.20;;;;;;;;;;5013786;28;20030;-42
2023/08/29 06:08:04;;;;;;;8.40;2.75;;;;;;;;;;5013641;28;20473;-42
2023/08/29 06:10:31;;;;;;;15.23;3.17;;;;;;;;;;5013847;28;20096;-42
2023/08/29 06:12:58;;;;;;;6.30;2.72;;;;;;;;;;5013727;28;20034;-42
2023/08/29 06:15:25;;;;;;;13.27;3.08;;;;;;;;;;5013667;28;20030;-41
2023/08/29 06:17:52;;;;;;;10.65;2.95;;;;;;;;;;5013564;28;20045;-42
2023/08/29 06:20:19;;;;;;;9.60;2.85;;;;;;;;;;5013586;28;20033;-41
2023/08/29 06:22:46;;;;;;;12.93;3.40;;;;;;;;;;5013501;28;20107;-42
2023/08/29 06:25:14;;;;;;;11.20;3.10;;;;;;;;;;5013474;28;20083;-42
2023/08/29 06:27:41;;;;;;;10.98;2.75;;;;;;;;;;5013453;28;20026;-42
2023/08/29 06:30:12;;;;;;;8.55;3.22;;;;;;;;;;5013144;28;20113;-42
2023/08/29 06:32:40;;;;;;;8.43;2.60;;;;;;;;;;5013406;28;20088;-42
2023/08/29 06:35:09;;;;;;;10.20;2.72;;;;;;;;;;5013487;28;20451;-42
2023/08/29 06:37:37;;;;;;;11.80;2.65;;;;;;;;;;5013218;28;20030;-42
2023/08/29 06:40:09;;;;;;;11.02;3.00;;;;;;;;;;5013079;28;20029;-42
2023/08/29 06:42:37;;;;;;;10.60;3.10;;;;;;;;;;5013123;28;20116;-42
2023/08/29 06:45:05;;;;;;;10.25;2.80;;;;;;;;;;5013177;28;20026;-42
2023/08/29 06:47:33;;;;;;;10.68;2.70;;;;;;;;;;5012707;28;20026;-42
2023/08/29 06:50:00;;;;;;;8.30;2.97;;;;;;;;;;5012961;28;20022;-41
2023/08/29 06:52:30;;;;;;;8.70;2.60;;;;;;;;;;5013054;28;20018;-42
2023/08/29 06:54:57;;;;;;;11.23;2.88;;;;;;;;;;5012953;28;20021;-41
2023/08/29 06:57:26;;;;;;;8.00;2.63;;;;;;;;;;5012805;28;20072;-41
2023/08/29 06:59:53;;;;;;;7.22;2.40;;;;;;;;;;5012756;28;20034;-42
2023/08/29 07:02:20;;;;;;;9.15;2.40;;;;;;;;;;5012867;28;20048;-42
2023/08/29 07:04:47;;;;;;;10.48;2.53;;;;;;;;;;5012861;28;20118;-41
2023/08/29 07:07:14;;;;;;;10.63;2.67;;;;;;;;;;5012810;28;20025;-42
2023/08/29 07:09:43;;;;;;;7.57;2.40;;;;;;;;;;5012647;28;20037;-41
2023/08/29 07:12:10;;;;;;;5.75;2.10;;;;;;;;;;5012647;28;20503;-42
2023/08/29 07:14:37;;;;;;;8.63;2.85;;;;;;;;;;5012713;28;20022;-42
2023/08/29 07:17:04;;;;;;;7.82;2.60;;;;;;;;;;5011203;28;20065;-42
2023/08/29 07:19:31;;;;;;;9.85;2.50;;;;;;;;;;5012424;28;20488;-42
2023/08/29 07:21:58;;;;;;;10.90;2.35;;;;;;;;;;5012569;28;20025;-42
2023/08/29 07:24:25;;;;;;;6.60;2.40;;;;;;;;;;5012357;28;20041;-42
2023/08/29 07:26:52;;;;;;;6.75;2.47;;;;;;;;;;5012434;28;20017;-42
2023/08/29 07:29:19;;;;;;;10.18;2.20;;;;;;;;;;5012436;28;20025;-41
2023/08/29 07:31:46;;;;;;;6.32;2.28;;;;;;;;;;5012032;28;20088;-42
2023/08/29 07:34:15;;;;;;;7.38;2.20;;;;;;;;;;5012311;28;20034;-42
2023/08/29 07:36:42;;;;;;;9.32;2.60;;;;;;;;;;5012184;28;20025;-41
2023/08/29 07:39:11;;;;;;;6.45;2.30;;;;;;;;;;5012255;28;20480;-42
2023/08/29 07:41:38;;;;;;;6.53;2.17;;;;;;;;;;5012105;28;20049;-41
2023/08/29 07:44:06;;;;;;;6.70;2.45;;;;;;;;;;5012117;28;20503;-42
2023/08/29 07:46:33;;;;;;;8.02;2.17;;;;;;;;;;5012294;28;20091;-42
2023/08/29 07:49:00;;;;;;;7.75;2.08;;;;;;;;;;5012087;28;20443;-42
2023/08/29 07:51:27;;;;;;;6.45;2.00;;;;;;;;;;5012072;28;20042;-41
2023/08/29 07:53:54;;;;;;;9.20;2.30;;;;;;;;;;5012033;28;20026;-42
2023/08/29 07:56:21;;;;;;;10.85;2.40;;;;;;;;;;5158679;23;20057;-57
2023/08/29 07:58:49;;;;;;;7.68;2.20;;;;;;;;;;5011732;28;20124;-53
2023/08/29 08:01:17;;;;;;;6.00;1.98;;;;;;;;;;5011403;28;20510;-53
2023/08/29 08:03:45;;;;;;;11.20;2.28;;;;;;;;;;5011968;28;20395;-54
2023/08/29 08:06:12;;;;;;;7.00;2.30;;;;;;;;;;5011866;28;20018;-53
2023/08/29 08:08:39;;;;;;;4.38;2.00;;;;;;;;;;5011807;28;20030;-55
2023/08/29 08:11:06;;;;;;;8.45;2.17;;;;;;;;;;5011841;28;20065;-51
2023/08/29 08:13:35;;;;;;;8.43;2.28;;;;;;;;;;5011922;28;20531;-55
2023/08/29 08:16:02;;;;;;;7.88;2.47;;;;;;;;;;5011838;28;20029;-53
2023/08/29 08:18:29;;;;;;;6.18;1.83;;;;;;;;;;5011743;28;20030;-53
2023/08/29 08:20:56;;;;;;;7.32;2.63;;;;;;;;;;5011864;28;20026;-53
2023/08/29 08:23:23;;;;;;;10.93;2.50;;;;;;;;;;5011813;28;20473;-52
2023/08/29 08:25:50;;;;;;;5.82;2.03;;;;;;;;;;5011414;28;20095;-56
2023/08/29 08:28:17;;;;;;;6.32;1.95;;;;;;;;;;5011719;28;20468;-55
2023/08/29 08:30:44;;;;;;;9.13;2.20;;;;;;;;;;5011792;28;20777;-56
2023/08/29 08:33:11;;;;;;;6.97;2.03;;;;;;;;;;5011611;28;20030;-56
2023/08/29 08:35:38;;;;;;;8.25;2.47;;;;;;;;;;5011743;28;20137;-56
2023/08/29 08:38:07;;;;;;;5.80;2.10;;;;;;;;;;5011642;28;20037;-56
2023/08/29 08:40:38;;;;;;;8.05;2.50;;;;;;;;;;5011705;28;20483;-56
2023/08/29 08:43:10;;;;;;;10.25;2.30;;;;;;;;;;5011650;28;20022;-55
2023/08/29 08:45:37;;;;;;;;;;;;;;;;;;5011974;28;20038;-56
2023/08/29 08:48:04;;;;;;;9.40;2.22;;;;;;;;;;5011536;28;20000;-56
2023/08/29 08:50:31;;;;;;;6.32;2.35;;;;;;;;;;5011716;28;20084;-50
2023/08/29 08:52:59;;;;;;;7.38;2.10;;;;;;;;;;5011361;28;20026;-51
2023/08/29 08:55:26;;;;;;;9.52;2.28;;;;;;;;;;5011470;28;20025;-55
2023/08/29 08:57:53;;;;;;;10.75;1.90;;;;;;;;;;5011250;28;20048;-52
2023/08/29 09:00:21;;;;;;;4.88;1.90;;;;;;;;;;5011261;28;20073;-56
2023/08/29 09:02:48;;;;;;;6.38;2.03;;;;;;;;;;5010049;28;20428;-56
2023/08/29 09:05:15;;;;;;;8.75;2.10;;;;;;;;;;5011471;28;20030;-56
2023/08/29 09:07:43;;;;;;;14.73;2.42;;;;;;;;;;5011349;28;20464;-56
2023/08/29 09:10:19;;;;;;;8.27;2.05;;;;;;;;;;5011276;28;20109;-51
2023/08/29 09:12:50;;;;;;;5.55;2.20;;;;;;;;;;5014519;28;20105;-54
2023/08/29 09:15:18;;;;;;;6.97;1.90;;;;;;;;;;5014819;28;20033;-53
2023/08/29 09:17:48;;;;;;;9.45;2.05;;;;;;;;;;5014688;28;20040;-51
2023/08/29 09:20:16;;;;;;;6.97;1.80;;;;;;;;;;5014753;28;20046;-55
2023/08/29 09:22:44;;;;;;;7.10;2.05;;;;;;;;;;5028817;28;20120;-52
2023/08/29 09:25:11;;;;;;;7.80;1.88;;;;;;;;;;5034442;28;20025;-50
2023/08/29 09:27:45;;;;;;;5.07;1.80;;;;;;;;;;5034274;28;20022;-50
2023/08/29 09:30:13;;;;;;;6.15;1.98;;;;;;;;;;5016004;28;20104;-52
2023/08/29 09:33:09;;;;;;;6.32;1.90;;;;;;;;;;5014289;28;20030;-49
2023/08/29 09:35:39;;;;;;;14.77;2.30;;;;;;;;;;5015213;28;20034;-59
2023/08/29 09:38:08;;;;;;;10.18;2.38;;;;;;;;;;5012896;28;20068;-58
2023/08/29 09:40:45;;;;;;;15.40;2.53;;;;;;;;;;5025524;28;20050;-58
2023/08/29 09:43:15;;;;;;;11.35;2.25;;;;;;;;;;5034016;28;20041;-59
2023/08/29 09:45:43;;;;;;;12.75;2.28;;;;;;;;;;5033758;28;20109;-59
2023/08/29 09:48:10;;;;;;;10.90;2.13;;;;;;;;;;5033974;28;20036;-59
2023/08/29 09:50:37;;;;;;;12.57;2.20;;;;;;;;;;5032711;28;20060;-59
2023/08/29 09:53:05;;;;;;;11.68;2.28;;;;;;;;;;5034065;28;20105;-59
2023/08/29 09:55:40;;;;;;;10.20;2.17;;;;;;;;;;5033857;28;20112;-59
2023/08/29 09:58:07;;;;;;;10.77;2.47;;;;;;;;;;5033663;28;20053;-59
2023/08/29 10:00:40;;;;;;;13.35;2.30;;;;;;;;;;5033766;28;20043;-59
2023/08/29 10:03:09;;;;;;;10.63;2.30;;;;;;;;;;5033885;28;20033;-59
2023/08/29 10:05:37;;;;;;;10.13;2.38;;;;;;;;;;5017254;28;20121;-57
2023/08/29 10:08:25;;;;;;;13.45;2.60;;;;;;;;;;5013894;28;20032;-58
2023/08/29 10:10:56;;;;;;;13.00;2.25;;;;;;;;;;5013891;28;20037;-59
2023/08/29 10:13:23;;;;;;;8.20;2.03;;;;;;;;;;5016313;28;20033;-59
2023/08/29 10:15:51;;;;;;;14.40;2.60;;;;;;;;;;5018260;28;20029;-46
2023/08/29 10:18:19;;;;;;;12.32;2.67;;;;;;;;;;5021083;28;20033;-49
2023/08/29 10:20:47;;;;;;;16.27;2.75;;;;;;;;;;5020812;28;20430;-48
2023/08/29 10:23:14;;;;;;;11.25;2.65;;;;;;;;;;5018817;28;20030;-46
2023/08/29 10:25:41;;;;;;;20.30;2.55;;;;;;;;;;5022636;28;20030;-46
2023/08/29 10:28:12;;;;;;;19.27;3.13;;;;;;;;;;5022168;28;20037;-44
2023/08/29 10:30:41;;;;;;;14.35;2.40;;;;;;;;;;5021935;28;20056;-45
2023/08/29 10:33:08;;;;;;;21.00;2.72;;;;;;;;;;5021585;28;20080;-49
2023/08/29 10:35:36;;;;;;;19.58;2.92;;;;;;;;;;5024110;28;20048;-48
2023/08/29 10:38:08;;;;;;;11.50;2.10;;;;;;;;;;5020017;28;20026;-48
2023/08/29 10:40:35;;;;;;;20.48;2.83;;;;;;;;;;5024338;28;20033;-48
2023/08/29 10:43:03;;;;;;;16.70;2.67;;;;;;;;;;5032832;28;20037;-53
2023/08/29 10:45:48;;;;;;;12.77;2.33;;;;;;;;;;5032489;28;20048;-54
2023/08/29 10:48:23;;;;;;;15.48;2.67;;;;;;;;;;5032832;28;20472;-54
2023/08/29 10:51:09;;;;;;;18.40;3.20;;;;;;;;;;5030605;28;20186;-55
2023/08/29 10:53:40;;;;;;;15.15;2.35;;;;;;;;;;5032733;28;20018;-51
2023/08/29 10:56:10;;;;;;;13.93;2.50;;;;;;;;;;5032450;28;20030;-52
2023/08/29 10:58:38;;;;;;;14.68;2.42;;;;;;;;;;5032599;28;20102;-55
2023/08/29 11:01:06;;;;;;;16.08;2.47;;;;;;;;;;5030303;28;20033;-55
2023/08/29 11:03:39;;;;;;;14.68;2.45;;;;;;;;;;5032450;28;20154;-55
2023/08/29 11:06:06;;;;;;;19.33;2.72;;;;;;;;;;5022118;28;20932;-47
2023/08/29 11:08:33;;;;;;;13.02;2.40;;;;;;;;;;5012051;28;20062;-54
2023/08/29 11:11:16;;;;;;;23.48;3.42;;;;;;;;;;5027737;28;20124;-56
2023/08/29 11:13:55;;;;;;;20.83;3.10;;;;;;;;;;5031957;28;20120;-56
2023/08/29 11:16:22;;;;;;;32.25;3.70;;;;;;;;;;5019557;28;20032;-52
2023/08/29 11:18:58;;;;;;;36.58;4.35;;;;;;;;;;5012315;28;20033;-59
2023/08/29 11:21:25;;;;;;;32.50;3.22;;;;;;;;;;5012382;28;20033;-59
2023/08/29 11:23:53;;;;;;;27.65;3.42;;;;;;;;;;5012283;28;20029;-55
2023/08/29 11:26:20;;;;;;;28.70;3.03;;;;;;;;;;5012192;28;20034;-57
2023/08/29 11:28:47;;;;;;;163.00;8.75;;;;;;;;;;5012234;28;20030;-59
2023/08/29 11:31:18;;;;;;;243.30;17.40;;;;;;;;;;5011405;28;20436;-61
2023/08/29 11:33:48;;;;;;;209.93;16.20;;;;;;;;;;5011874;28;20038;-59
2023/08/29 11:36:16;;;;;;;104.68;6.95;;;;;;;;;;5011161;28;20044;-60
2023/08/29 11:38:44;;;;;;;48.22;4.88;;;;;;;;;;5012084;28;20503;-65
2023/08/29 11:41:12;;;;;;;41.35;4.45;;;;;;;;;;5012130;28;20037;-65
2023/08/29 11:43:40;;;;;;;56.03;5.70;;;;;;;;;;5011728;28;20493;-61
2023/08/29 11:46:07;;;;;;;47.95;5.72;;;;;;;;;;5011643;28;20533;-61
2023/08/29 11:48:34;;;;;;;77.60;9.75;;;;;;;;;;5011196;28;20022;-65
2023/08/29 11:51:05;;;;;;;72.72;7.45;;;;;;;;;;5011436;28;20044;-65
2023/08/29 11:53:36;;;;;;;57.97;7.00;;;;;;;;;;5011962;28;20033;-57
2023/08/29 11:56:04;;;;;;;52.08;6.50;;;;;;;;;;5011025;28;20117;-61
2023/08/29 11:58:32;;;;;;;66.80;7.05;;;;;;;;;;5011201;28;20087;-66
2023/08/29 12:01:01;;;;;;;566.10;41.05;;;;;;;;;;5007550;28;20411;-63
2023/08/29 12:03:28;;;;;;;416.98;36.45;;;;;;;;;;5011815;28;20057;-65
2023/08/29 12:05:59;;;;;;;424.42;39.17;;;;;;;;;;5010691;28;20030;-66
2023/08/29 12:08:36;;;;;;;224.85;24.40;;;;;;;;;;5009051;28;20042;-65
2023/08/29 12:11:06;;;;;;;136.23;17.80;;;;;;;;;;5008115;28;20771;-66
2023/08/29 12:13:35;;;;;;;149.15;17.33;;;;;;;;;;5008863;28;20053;-67
2023/08/29 12:16:02;;;;;;;147.57;17.20;;;;;;;;;;5010872;28;20029;-65
2023/08/29 12:18:29;;;;;;;146.80;19.02;;;;;;;;;;5010717;28;20026;-65
2023/08/29 12:21:15;;;;;;;136.57;18.92;;;;;;;;;;5011057;28;20734;-66
2023/08/29 12:23:45;;;;;;;144.48;18.92;;;;;;;;;;5010290;28;20034;-64
2023/08/29 12:26:14;;;;;;;129.32;18.60;;;;;;;;;;5011023;28;20044;-68
2023/08/29 12:28:42;;;;;;;122.82;18.15;;;;;;;;;;5008789;28;20034;-68
2023/08/29 12:31:09;;;;;;;123.82;17.52;;;;;;;;;;5011068;28;20531;-66
2023/08/29 12:33:36;;;;;;;97.70;16.02;;;;;;;;;;5010687;28;20116;-68
2023/08/29 12:36:04;;;;;;;108.28;16.17;;;;;;;;;;5010797;28;20047;-66
2023/08/29 12:38:31;;;;;;;100.63;15.55;;;;;;;;;;5010613;28;20029;-67
2023/08/29 12:40:58;;;;;;;103.93;17.05;;;;;;;;;;5010591;28;20133;-66
2023/08/29 12:43:25;;;;;;;89.63;14.48;;;;;;;;;;5011178;28;20383;-68
2023/08/29 12:45:52;;;;;;;87.55;14.50;;;;;;;;;;5011134;28;20025;-66
2023/08/29 12:48:20;;;;;;;98.05;15.90;;;;;;;;;;5014562;28;20374;-66
2023/08/29 12:50:48;;;;;;;93.78;15.05;;;;;;;;;;5014552;28;20030;-68
2023/08/29 12:53:16;;;;;;;103.78;15.48;;;;;;;;;;5013107;28;20192;-66
2023/08/29 12:55:43;;;;;;;98.20;15.27;;;;;;;;;;5014340;28;20033;-68
2023/08/29 12:58:10;;;;;;;96.10;15.10;;;;;;;;;;5014835;28;20053;-68
2023/08/29 13:00:38;;;;;;;97.95;15.95;;;;;;;;;;5012384;28;20089;-68
2023/08/29 13:03:06;;;;;;;96.90;16.13;;;;;;;;;;5014319;28;20072;-68
2023/08/29 13:05:33;;;;;;;100.47;16.80;;;;;;;;;;5014539;28;20445;-65
2023/08/29 13:08:00;;;;;;;98.45;16.60;;;;;;;;;;5014782;28;20035;-65
2023/08/29 13:10:27;;;;;;;115.80;17.10;;;;;;;;;;5014260;28;20514;-63
2023/08/29 13:12:55;;;;;;;116.00;17.17;;;;;;;;;;5012652;28;20042;-65
2023/08/29 13:15:22;;;;;;;96.57;15.50;;;;;;;;;;5014597;28;20030;-65
2023/08/29 13:17:50;;;;;;;95.90;15.45;;;;;;;;;;5014672;28;20026;-64
2023/08/29 13:20:17;;;;;;;94.85;15.73;;;;;;;;;;5014553;28;20111;-64
2023/08/29 13:22:46;;;;;;;77.70;14.25;;;;;;;;;;5014451;28;20555;-64
2023/08/29 13:25:13;;;;;;;88.28;13.50;;;;;;;;;;5013030;28;20038;-64
2023/08/29 13:27:40;;;;;;;72.63;13.77;;;;;;;;;;5013554;28;20583;-64
2023/08/29 13:30:08;;;;;;;91.80;14.25;;;;;;;;;;5009901;28;20034;-66
2023/08/29 13:32:35;;;;;;;85.05;13.13;;;;;;;;;;5013797;28;20054;-64
2023/08/29 13:35:03;;;;;;;70.90;12.43;;;;;;;;;;5014133;28;20045;-65
2023/08/29 13:37:31;;;;;;;68.55;12.20;;;;;;;;;;5014183;28;20034;-62
2023/08/29 13:39:58;;;;;;;71.95;12.57;;;;;;;;;;5014225;28;20042;-62
2023/08/29 13:42:25;;;;;;;63.45;11.38;;;;;;;;;;5014258;28;20113;-62
2023/08/29 13:44:56;;;;;;;72.28;11.73;;;;;;;;;;5014180;28;20030;-62
2023/08/29 13:47:24;;;;;;;69.37;12.70;;;;;;;;;;5013967;28;20042;-62
2023/08/29 13:49:52;;;;;;;65.82;10.50;;;;;;;;;;5014036;28;20314;-62
2023/08/29 13:52:20;;;;;;;65.45;10.70;;;;;;;;;;5014102;28;20113;-62
2023/08/29 13:54:47;;;;;;;67.28;10.68;;;;;;;;;;5013409;28;20036;-63
2023/08/29 13:57:14;;;;;;;108.50;9.75;;;;;;;;;;5012710;28;20050;-64
2023/08/29 13:59:41;;;;;;;82.85;9.35;;;;;;;;;;5010615;28;20026;-64
2023/08/29 14:02:09;;;;;;;85.30;8.55;;;;;;;;;;5013076;28;20052;-63
2023/08/29 14:04:37;;;;;;;79.15;8.57;;;;;;;;;;5013899;28;20486;-63
2023/08/29 14:07:04;;;;;;;62.22;7.80;;;;;;;;;;5013646;28;20032;-63
2023/08/29 14:09:31;;;;;;;67.32;7.13;;;;;;;;;;5013418;28;20101;-64
2023/08/29 14:11:58;;;;;;;55.00;6.88;;;;;;;;;;5012934;28;20036;-64
2023/08/29 14:14:28;;;;;;;57.30;6.63;;;;;;;;;;5013315;28;20030;-64
2023/08/29 14:16:55;;;;;;;55.60;7.00;;;;;;;;;;5012888;28;20217;-62
2023/08/29 14:19:22;;;;;;;57.88;6.63;;;;;;;;;;5011980;28;20036;-65
2023/08/29 14:21:49;;;;;;;72.78;7.40;;;;;;;;;;5012349;28;20022;-65
2023/08/29 14:24:16;;;;;;;74.55;8.68;;;;;;;;;;5012341;28;20022;-64
2023/08/29 14:26:43;;;;;;;90.20;8.07;;;;;;;;;;5012135;28;20026;-63
2023/08/29 14:29:10;;;;;;;60.40;7.05;;;;;;;;;;5012564;28;20041;-62
2023/08/29 14:31:37;;;;;;;55.03;7.72;;;;;;;;;;5012644;28;20037;-64
2023/08/29 14:34:04;;;;;;;45.35;7.05;;;;;;;;;;5013326;28;20026;-64
2023/08/29 14:36:32;;;;;;;62.40;7.10;;;;;;;;;;5013129;28;20033;-64